createdAt,value
2019-05-18T00:02:28.804Z,19.71
2019-05-18T00:05:00.219Z,19.71
2019-05-18T00:07:31.668Z,19.72
2019-05-18T00:10:03.024Z,19.66
2019-05-18T00:12:35.510Z,19.71
2019-05-18T00:15:08.697Z,19.67
2019-05-18T00:17:40.104Z,19.64
2019-05-18T00:20:14.614Z,19.63
2019-05-18T00:22:46.007Z,19.62
2019-05-18T00:25:17.452Z,19.58
2019-05-18T00:27:49.932Z,19.57
2019-05-18T00:30:25.071Z,19.59
2019-05-18T00:32:56.495Z,19.57
2019-05-18T00:35:27.961Z,19.54
2019-05-18T00:37:59.388Z,19.56
2019-05-18T00:40:30.793Z,19.43
2019-05-18T00:43:02.196Z,19.50
2019-05-18T00:45:33.684Z,19.47
2019-05-18T00:48:05.147Z,19.45
2019-05-18T00:50:36.551Z,19.43
2019-05-18T00:53:07.950Z,19.40
2019-05-18T00:55:39.390Z,19.38
2019-05-18T00:58:11.737Z,19.30
2019-05-18T01:00:43.169Z,19.34
2019-05-18T01:03:14.571Z,19.30
2019-05-18T01:05:46.008Z,19.26
2019-05-18T01:08:17.433Z,19.25
2019-05-18T01:10:49.878Z,19.20
2019-05-18T01:13:21.348Z,19.16
2019-05-18T01:15:52.747Z,19.13
2019-05-18T01:18:25.157Z,19.11
2019-05-18T01:20:56.581Z,19.05
2019-05-18T01:23:28.099Z,19.03
2019-05-18T01:25:59.508Z,18.97
2019-05-18T01:28:32.097Z,19.01
2019-05-18T01:31:03.598Z,18.98
2019-05-18T01:33:36.005Z,18.93
2019-05-18T01:36:07.416Z,18.90
2019-05-18T01:38:42.073Z,18.88
2019-05-18T01:41:13.771Z,18.90
2019-05-18T01:43:45.329Z,18.86
2019-05-18T01:46:16.732Z,18.86
2019-05-18T01:48:48.088Z,18.85
2019-05-18T01:51:19.591Z,18.77
2019-05-18T01:53:51.889Z,18.74
2019-05-18T01:56:23.357Z,18.69
2019-05-18T01:58:55.779Z,18.65
2019-05-18T02:01:29.683Z,18.56
2019-05-18T02:04:04.917Z,18.61
2019-05-18T02:06:36.792Z,18.59
2019-05-18T02:09:09.888Z,18.56
2019-05-18T02:11:41.338Z,18.52
2019-05-18T02:14:12.936Z,18.53
2019-05-18T02:16:44.386Z,18.52
2019-05-18T02:19:15.785Z,18.48
2019-05-18T02:21:48.172Z,18.48
2019-05-18T02:24:20.619Z,18.43
2019-05-18T02:26:53.912Z,18.41
2019-05-18T02:29:27.571Z,18.38
2019-05-18T02:31:59.000Z,18.38
2019-05-18T02:34:32.157Z,18.38
2019-05-18T02:37:03.681Z,18.40
2019-05-18T02:39:36.692Z,18.52
2019-05-18T02:42:10.681Z,18.54
2019-05-18T02:44:42.121Z,18.58
2019-05-18T02:47:13.539Z,18.54
2019-05-18T02:49:46.354Z,18.53
2019-05-18T02:52:17.898Z,18.56
2019-05-18T02:54:49.336Z,18.67
2019-05-18T02:57:21.853Z,18.76
2019-05-18T02:59:53.423Z,18.76
2019-05-18T03:02:24.826Z,18.86
2019-05-18T03:04:57.211Z,18.78
2019-05-18T03:07:28.895Z,18.80
2019-05-18T03:10:00.297Z,18.96
2019-05-18T03:12:31.722Z,18.99
2019-05-18T03:15:03.465Z,18.96
2019-05-18T03:17:37.152Z,18.88
2019-05-18T03:20:11.590Z,18.92
2019-05-18T03:22:43.171Z,18.82
2019-05-18T03:25:14.753Z,18.78
2019-05-18T03:27:46.220Z,18.83
2019-05-18T03:30:19.156Z,18.88
2019-05-18T03:32:51.527Z,18.95
2019-05-18T03:35:23.021Z,18.88
2019-05-18T03:37:54.554Z,18.85
2019-05-18T03:40:26.101Z,18.78
2019-05-18T03:42:57.774Z,18.78
2019-05-18T03:45:30.371Z,18.76
2019-05-18T03:48:01.956Z,18.81
2019-05-18T03:50:34.568Z,18.83
2019-05-18T03:53:06.574Z,18.83
2019-05-18T03:55:38.021Z,18.83
2019-05-18T03:58:09.674Z,18.95
2019-05-18T04:00:41.169Z,18.96
2019-05-18T04:03:14.621Z,19.00
2019-05-18T04:05:46.074Z,19.02
2019-05-18T04:08:18.432Z,19.19
2019-05-18T04:10:49.946Z,19.31
2019-05-18T04:13:21.571Z,19.90
2019-05-18T04:15:53.018Z,20.24
2019-05-18T04:18:24.662Z,20.43
2019-05-18T04:20:56.295Z,20.40
2019-05-18T04:23:27.747Z,20.57
2019-05-18T04:25:59.187Z,20.93
2019-05-18T04:28:30.849Z,21.69
2019-05-18T04:31:02.379Z,22.51
2019-05-18T04:33:33.916Z,23.67
2019-05-18T04:36:06.238Z,24.50
2019-05-18T04:38:37.643Z,25.39
2019-05-18T04:41:09.819Z,25.22
2019-05-18T04:43:41.298Z,24.83
2019-05-18T04:46:13.018Z,24.86
2019-05-18T04:48:44.565Z,25.19
2019-05-18T04:51:15.982Z,25.29
2019-05-18T04:53:47.510Z,25.91
2019-05-18T04:56:18.946Z,26.51
2019-05-18T04:58:55.528Z,26.90
2019-05-18T05:01:27.079Z,26.61
2019-05-18T05:03:58.716Z,26.95
2019-05-18T05:06:31.226Z,26.48
2019-05-18T05:09:08.048Z,27.19
2019-05-18T05:11:39.508Z,26.25
2019-05-18T05:14:12.336Z,27.12
2019-05-18T05:16:44.848Z,26.64
2019-05-18T05:19:19.137Z,27.14
2019-05-18T05:21:50.550Z,27.31
2019-05-18T05:24:22.906Z,27.15
2019-05-18T05:26:55.358Z,28.07
2019-05-18T05:29:28.045Z,27.58
2019-05-18T05:31:59.416Z,28.43
2019-05-18T05:34:33.017Z,28.18
2019-05-18T05:37:05.470Z,29.05
2019-05-18T05:39:36.869Z,28.94
2019-05-18T05:42:10.195Z,28.44
2019-05-18T05:44:41.698Z,28.35
2019-05-18T05:47:14.307Z,28.51
2019-05-18T05:49:45.760Z,28.42
2019-05-18T05:52:18.184Z,28.26
2019-05-18T05:54:49.678Z,28.41
2019-05-18T05:57:21.107Z,28.72
2019-05-18T05:59:52.609Z,28.91
2019-05-18T06:02:24.971Z,29.22
2019-05-18T06:04:56.465Z,29.31
2019-05-18T06:07:31.873Z,29.82
2019-05-18T06:10:03.824Z,28.67
2019-05-18T06:12:35.250Z,29.83
2019-05-18T06:15:09.274Z,30.10
2019-05-18T06:17:40.797Z,30.58
2019-05-18T06:20:12.360Z,30.28
2019-05-18T06:22:43.864Z,30.20
2019-05-18T06:25:15.299Z,29.87
2019-05-18T06:27:46.845Z,29.06
2019-05-18T06:30:19.051Z,29.59
2019-05-18T06:32:50.572Z,29.31
2019-05-18T06:35:22.142Z,29.97
2019-05-18T06:37:53.655Z,31.72
2019-05-18T06:40:25.200Z,30.84
2019-05-18T06:42:56.614Z,30.85
2019-05-18T06:45:30.053Z,30.49
2019-05-18T06:48:03.756Z,30.45
2019-05-18T06:50:35.351Z,29.80
2019-05-18T06:53:07.825Z,31.39
2019-05-18T06:55:40.130Z,31.59
2019-05-18T06:58:12.679Z,30.92
2019-05-18T07:00:45.110Z,32.11
2019-05-18T07:03:16.512Z,29.65
2019-05-18T07:05:48.079Z,30.10
2019-05-18T07:08:20.631Z,31.03
2019-05-18T07:10:52.282Z,32.17
2019-05-18T07:13:23.903Z,31.51
2019-05-18T07:15:55.510Z,32.17
2019-05-18T07:18:27.022Z,32.09
2019-05-18T07:20:58.536Z,31.13
2019-05-18T07:23:30.007Z,32.03
2019-05-18T07:26:01.479Z,31.93
2019-05-18T07:28:33.063Z,30.96
2019-05-18T07:31:04.597Z,32.28
2019-05-18T07:33:36.039Z,31.80
2019-05-18T07:36:07.808Z,31.49
2019-05-18T07:38:40.281Z,31.09
2019-05-18T07:41:12.822Z,31.77
2019-05-18T07:43:44.392Z,32.34
2019-05-18T07:46:15.810Z,30.33
2019-05-18T07:48:47.207Z,30.59
2019-05-18T07:51:20.669Z,31.44
2019-05-18T07:53:52.291Z,31.48
2019-05-18T07:56:23.729Z,31.55
2019-05-18T07:58:57.282Z,32.94
2019-05-18T08:01:28.868Z,32.88
2019-05-18T08:04:00.585Z,31.61
2019-05-18T08:06:32.192Z,31.35
2019-05-18T08:09:04.620Z,31.28
2019-05-18T08:11:36.236Z,30.69
2019-05-18T08:14:07.768Z,31.42
2019-05-18T08:16:39.386Z,31.95
2019-05-18T08:19:10.931Z,31.08
2019-05-18T08:21:52.698Z,29.99
2019-05-18T08:24:15.740Z,28.55
2019-05-18T08:26:49.255Z,27.97
2019-05-18T08:29:20.970Z,28.54
2019-05-18T08:31:52.460Z,28.67
2019-05-18T08:34:24.082Z,28.75
2019-05-18T08:36:56.684Z,28.55
2019-05-18T08:39:28.163Z,28.21
2019-05-18T08:41:59.724Z,28.16
2019-05-18T08:44:31.320Z,27.67
2019-05-18T08:47:02.897Z,28.08
2019-05-18T08:49:36.037Z,27.69
2019-05-18T08:52:08.868Z,27.64
2019-05-18T08:54:41.608Z,27.74
2019-05-18T08:57:14.113Z,27.90
2019-05-18T08:59:45.577Z,27.76
2019-05-18T09:02:17.018Z,27.52
2019-05-18T09:04:48.598Z,27.29
2019-05-18T09:07:21.103Z,27.46
2019-05-18T09:09:54.405Z,27.27
2019-05-18T09:12:26.993Z,27.34
2019-05-18T09:14:59.607Z,27.24
2019-05-18T09:17:31.329Z,27.36
2019-05-18T09:20:03.505Z,27.11
2019-05-18T09:22:38.738Z,27.32
2019-05-18T09:25:12.382Z,27.32
2019-05-18T09:27:46.999Z,27.21
2019-05-18T09:30:18.822Z,27.50
2019-05-18T09:32:50.408Z,27.33
2019-05-18T09:35:22.953Z,27.14
2019-05-18T09:37:54.406Z,27.06
2019-05-18T09:40:26.218Z,26.86
2019-05-18T09:42:58.030Z,26.98
2019-05-18T09:45:29.600Z,26.98
2019-05-18T09:48:01.162Z,26.99
2019-05-18T09:50:32.766Z,26.87
2019-05-18T09:53:05.038Z,27.01
2019-05-18T09:55:37.952Z,26.92
2019-05-18T09:58:09.477Z,26.92
2019-05-18T10:00:41.024Z,26.95
2019-05-18T10:03:13.246Z,27.07
2019-05-18T10:05:46.432Z,27.09
2019-05-18T10:08:18.974Z,27.09
2019-05-18T10:10:50.682Z,27.22
2019-05-18T10:13:22.198Z,27.16
2019-05-18T10:15:53.882Z,27.31
2019-05-18T10:18:25.495Z,27.22
2019-05-18T10:20:57.038Z,27.44
2019-05-18T10:23:28.695Z,27.35
2019-05-18T10:26:00.428Z,27.48
2019-05-18T10:28:31.971Z,27.55
2019-05-18T10:31:03.637Z,27.30
2019-05-18T10:33:35.042Z,27.39
2019-05-18T10:36:11.522Z,27.60
2019-05-18T10:38:41.800Z,27.67
2019-05-18T10:41:13.325Z,27.54
2019-05-18T10:43:48.624Z,27.66
2019-05-18T10:46:24.667Z,27.49
2019-05-18T10:48:58.620Z,27.36
2019-05-18T10:51:30.321Z,27.53
2019-05-18T10:54:01.817Z,27.39
2019-05-18T10:56:38.706Z,27.39
2019-05-18T10:59:12.774Z,27.29
2019-05-18T11:01:47.956Z,27.12
2019-05-18T11:04:19.638Z,27.27
2019-05-18T11:06:51.156Z,27.39
2019-05-18T11:09:22.665Z,27.19
2019-05-18T11:11:54.258Z,27.27
2019-05-18T11:14:25.972Z,27.27
2019-05-18T11:16:58.510Z,27.27
2019-05-18T11:19:30.087Z,27.31
2019-05-18T11:22:03.497Z,27.38
2019-05-18T11:24:36.285Z,27.35
2019-05-18T11:27:07.556Z,27.44
2019-05-18T11:29:39.430Z,27.62
2019-05-18T11:32:12.094Z,27.71
2019-05-18T11:34:44.004Z,27.72
2019-05-18T11:37:16.545Z,27.80
2019-05-18T11:39:48.023Z,27.89
2019-05-18T11:42:19.484Z,27.93
2019-05-18T11:44:51.041Z,27.52
2019-05-18T11:47:22.587Z,27.55
2019-05-18T11:49:57.816Z,27.95
2019-05-18T11:52:29.655Z,27.89
2019-05-18T11:55:05.039Z,27.90
2019-05-18T11:57:35.817Z,27.76
2019-05-18T12:00:14.123Z,27.64
2019-05-18T12:02:45.731Z,27.40
2019-05-18T12:05:18.873Z,27.29
2019-05-18T12:07:50.531Z,27.50
2019-05-18T12:10:23.269Z,27.76
2019-05-18T12:12:56.536Z,27.87
2019-05-18T12:15:28.425Z,27.88
2019-05-18T12:18:00.015Z,28.11
2019-05-18T12:20:33.695Z,27.86
2019-05-18T12:23:08.411Z,27.88
2019-05-18T12:25:41.042Z,27.87
2019-05-18T12:28:12.645Z,27.93
2019-05-18T12:30:46.456Z,27.84
2019-05-18T12:33:17.996Z,27.81
2019-05-18T12:35:49.443Z,27.79
2019-05-18T12:38:22.806Z,27.76
2019-05-18T12:40:55.506Z,27.75
2019-05-18T12:43:27.128Z,27.81
2019-05-18T12:46:01.272Z,27.62
2019-05-18T12:48:32.316Z,27.62
2019-05-18T12:51:04.546Z,27.68
2019-05-18T12:53:39.292Z,27.78
2019-05-18T12:56:10.754Z,27.71
2019-05-18T12:58:42.281Z,27.69
2019-05-18T13:01:13.836Z,27.66
2019-05-18T13:03:46.424Z,27.75
2019-05-18T13:06:20.269Z,27.63
2019-05-18T13:08:52.050Z,27.62
2019-05-18T13:11:24.670Z,27.50
2019-05-18T13:13:56.161Z,27.49
2019-05-18T13:16:31.305Z,27.43
2019-05-18T13:19:02.733Z,27.59
2019-05-18T13:21:40.186Z,27.60
2019-05-18T13:24:13.070Z,27.62
2019-05-18T13:27:00.288Z,27.77
2019-05-18T13:29:33.869Z,27.84
2019-05-18T13:32:06.499Z,27.72
2019-05-18T13:34:38.529Z,27.65
2019-05-18T13:37:10.180Z,27.73
2019-05-18T13:39:41.696Z,27.69
2019-05-18T13:42:13.235Z,27.62
2019-05-18T13:44:44.654Z,27.72
2019-05-18T13:47:16.213Z,27.70
2019-05-18T13:49:49.688Z,27.61
2019-05-18T13:52:23.207Z,27.62
2019-05-18T13:55:03.735Z,27.58
2019-05-18T13:57:29.404Z,27.57
2019-05-18T14:00:01.089Z,27.49
2019-05-18T14:02:32.663Z,27.44
2019-05-18T14:05:05.802Z,27.46
2019-05-18T14:07:37.814Z,27.44
2019-05-18T14:10:12.615Z,27.47
2019-05-18T14:12:44.361Z,27.68
2019-05-18T14:15:16.126Z,27.55
2019-05-18T14:17:48.737Z,27.54
2019-05-18T14:20:20.328Z,27.55
2019-05-18T14:22:52.099Z,27.52
2019-05-18T14:25:23.871Z,27.30
2019-05-18T14:27:55.430Z,27.33
2019-05-18T14:30:27.937Z,27.40
2019-05-18T14:32:59.317Z,27.42
2019-05-18T14:35:33.397Z,27.45
2019-05-18T14:38:04.417Z,27.48
2019-05-18T14:40:36.545Z,27.49
2019-05-18T14:43:09.137Z,27.41
2019-05-18T14:45:41.586Z,27.46
2019-05-18T14:48:13.020Z,27.41
2019-05-18T14:50:45.614Z,27.36
2019-05-18T14:53:18.157Z,27.34
2019-05-18T14:55:49.603Z,27.37
2019-05-18T14:58:22.321Z,27.25
2019-05-18T15:00:53.736Z,27.17
2019-05-18T15:03:25.174Z,27.04
2019-05-18T15:05:56.802Z,27.02
2019-05-18T15:08:28.255Z,27.13
2019-05-18T15:10:59.705Z,27.14
2019-05-18T15:13:32.424Z,27.21
2019-05-18T15:16:03.941Z,27.15
2019-05-18T15:18:35.938Z,27.19
2019-05-18T15:21:07.641Z,27.06
2019-05-18T15:23:40.141Z,27.09
2019-05-18T15:26:12.002Z,27.05
2019-05-18T15:28:43.472Z,26.97
2019-05-18T15:31:15.051Z,26.94
2019-05-18T15:33:46.594Z,26.93
2019-05-18T15:36:18.302Z,26.80
2019-05-18T15:38:49.806Z,26.83
2019-05-18T15:41:21.244Z,26.86
2019-05-18T15:43:54.293Z,26.80
2019-05-18T15:46:25.793Z,26.74
2019-05-18T15:48:57.383Z,26.85
2019-05-18T15:51:28.803Z,26.82
2019-05-18T15:54:01.802Z,26.82
2019-05-18T15:56:33.571Z,26.72
2019-05-18T15:59:05.230Z,26.67
2019-05-18T16:01:36.648Z,26.52
2019-05-18T16:04:10.259Z,26.47
2019-05-18T16:06:41.740Z,26.41
2019-05-18T16:09:14.323Z,26.42
2019-05-18T16:11:45.795Z,26.34
2019-05-18T16:14:18.446Z,26.27
2019-05-18T16:16:54.684Z,26.21
2019-05-18T16:19:23.177Z,26.20
2019-05-18T16:21:54.711Z,26.12
2019-05-18T16:24:26.159Z,26.13
2019-05-18T16:26:57.722Z,26.03
2019-05-18T16:29:29.261Z,26.04
2019-05-18T16:32:00.680Z,25.98
2019-05-18T16:34:32.083Z,25.98
2019-05-18T16:37:04.988Z,25.95
2019-05-18T16:39:38.506Z,25.89
2019-05-18T16:42:10.220Z,25.85
2019-05-18T16:44:41.769Z,25.79
2019-05-18T16:47:13.255Z,25.73
2019-05-18T16:49:46.766Z,25.65
2019-05-18T16:52:19.295Z,25.63
2019-05-18T16:54:50.759Z,25.53
2019-05-18T16:57:22.183Z,25.52
2019-05-18T16:59:54.771Z,25.48
2019-05-18T17:02:31.515Z,25.43
2019-05-18T17:04:59.652Z,25.40
2019-05-18T17:07:32.151Z,25.36
2019-05-18T17:10:06.375Z,25.31
2019-05-18T17:12:38.037Z,25.23
2019-05-18T17:15:10.157Z,25.23
2019-05-18T17:17:41.690Z,25.21
2019-05-18T17:20:14.520Z,25.16
2019-05-18T17:22:47.029Z,25.13
2019-05-18T17:25:18.559Z,25.04
2019-05-18T17:27:50.961Z,25.01
2019-05-18T17:30:22.590Z,24.92
2019-05-18T17:32:54.577Z,24.88
2019-05-18T17:35:26.072Z,24.84
2019-05-18T17:37:57.540Z,24.80
2019-05-18T17:40:28.992Z,24.69
2019-05-18T17:43:00.780Z,24.66
2019-05-18T17:45:32.756Z,24.64
2019-05-18T17:48:04.359Z,24.61
2019-05-18T17:50:36.972Z,24.57
2019-05-18T17:53:08.558Z,24.52
2019-05-18T17:55:41.237Z,24.48
2019-05-18T17:58:12.708Z,24.43
2019-05-18T18:00:45.389Z,24.39
2019-05-18T18:03:17.020Z,24.36
2019-05-18T18:05:49.520Z,24.32
2019-05-18T18:08:21.080Z,24.27
2019-05-18T18:10:52.496Z,24.23
2019-05-18T18:13:25.017Z,24.20
2019-05-18T18:15:56.555Z,24.11
2019-05-18T18:18:29.331Z,24.08
2019-05-18T18:21:01.533Z,24.00
2019-05-18T18:23:33.088Z,23.98
2019-05-18T18:26:04.612Z,23.89
2019-05-18T18:28:37.000Z,23.82
2019-05-18T18:31:08.448Z,23.72
2019-05-18T18:33:40.629Z,23.65
2019-05-18T18:36:14.186Z,23.59
2019-05-18T18:38:45.932Z,23.51
2019-05-18T18:41:18.780Z,23.46
2019-05-18T18:43:50.320Z,23.41
2019-05-18T18:46:21.878Z,23.37
2019-05-18T18:48:53.717Z,23.33
2019-05-18T18:51:25.590Z,23.29
2019-05-18T18:53:57.321Z,23.22
2019-05-18T18:56:28.905Z,23.16
2019-05-18T18:59:00.430Z,23.12
2019-05-18T19:01:33.039Z,23.06
2019-05-18T19:04:04.511Z,22.99
2019-05-18T19:06:36.236Z,22.85
2019-05-18T19:09:08.477Z,22.76
2019-05-18T19:11:42.061Z,22.67
2019-05-18T19:14:13.735Z,22.65
2019-05-18T19:16:46.231Z,22.61
2019-05-18T19:19:18.142Z,22.56
2019-05-18T19:21:50.841Z,22.47
2019-05-18T19:24:23.531Z,22.50
2019-05-18T19:26:55.483Z,22.42
2019-05-18T19:29:27.022Z,22.37
2019-05-18T19:31:58.610Z,22.35
2019-05-18T19:34:30.293Z,22.30
2019-05-18T19:37:04.995Z,22.27
2019-05-18T19:39:36.895Z,22.20
2019-05-18T19:42:10.243Z,22.12
2019-05-18T19:44:43.015Z,22.06
2019-05-18T19:47:14.623Z,22.02
2019-05-18T19:49:46.410Z,22.00
2019-05-18T19:52:19.245Z,21.98
2019-05-18T19:54:52.853Z,21.97
2019-05-18T19:57:26.305Z,21.92
2019-05-18T19:59:57.858Z,21.86
2019-05-18T20:02:29.309Z,21.74
2019-05-18T20:05:07.817Z,21.77
2019-05-18T20:07:36.077Z,21.72
2019-05-18T20:10:10.599Z,21.63
2019-05-18T20:12:44.479Z,21.63
2019-05-18T20:15:17.017Z,21.58
2019-05-18T20:17:48.575Z,21.59
2019-05-18T20:20:20.100Z,21.49
2019-05-18T20:22:51.722Z,21.46
2019-05-18T20:25:23.545Z,21.39
2019-05-18T20:27:56.007Z,21.34
2019-05-18T20:30:28.601Z,21.30
2019-05-18T20:33:00.259Z,21.23
2019-05-18T20:35:34.196Z,21.20
2019-05-18T20:38:08.220Z,21.14
2019-05-18T20:40:40.960Z,21.09
2019-05-18T20:43:12.702Z,21.02
2019-05-18T20:45:47.959Z,20.98
2019-05-18T20:48:19.604Z,20.92
2019-05-18T20:50:51.625Z,20.84
2019-05-18T20:53:23.131Z,20.82
2019-05-18T20:55:56.784Z,20.78
2019-05-18T20:58:39.605Z,20.73
2019-05-18T21:01:01.915Z,20.69
2019-05-18T21:03:38.411Z,20.63
2019-05-18T21:06:11.212Z,20.60
2019-05-18T21:08:43.693Z,20.55
2019-05-18T21:11:15.182Z,20.54
2019-05-18T21:13:46.696Z,20.48
2019-05-18T21:16:19.282Z,20.43
2019-05-18T21:18:51.395Z,20.40
2019-05-18T21:21:25.611Z,20.34
2019-05-18T21:23:56.690Z,20.28
2019-05-18T21:26:30.701Z,20.27
2019-05-18T21:29:03.788Z,20.16
2019-05-18T21:31:36.478Z,20.13
2019-05-18T21:34:10.381Z,20.07
2019-05-18T21:36:42.039Z,20.02
2019-05-18T21:39:14.657Z,20.03
2019-05-18T21:41:46.083Z,20.00
2019-05-18T21:44:18.762Z,19.91
2019-05-18T21:46:50.332Z,19.93
2019-05-18T21:49:22.057Z,19.90
2019-05-18T21:51:55.599Z,19.81
2019-05-18T21:54:27.012Z,19.78
2019-05-18T21:56:59.077Z,19.72
2019-05-18T21:59:30.708Z,19.68
2019-05-18T22:02:03.076Z,19.63
2019-05-18T22:04:34.646Z,19.58
2019-05-18T22:07:06.301Z,19.58
2019-05-18T22:09:38.687Z,19.54
2019-05-18T22:12:11.495Z,19.49
2019-05-18T22:14:43.022Z,19.42
2019-05-18T22:17:14.447Z,19.40
2019-05-18T22:19:46.779Z,19.39
2019-05-18T22:22:18.301Z,19.38
2019-05-18T22:24:50.823Z,19.36
2019-05-18T22:27:23.188Z,19.32
2019-05-18T22:29:54.668Z,19.27
2019-05-18T22:32:26.230Z,19.27
2019-05-18T22:34:58.686Z,19.26
2019-05-18T22:37:30.500Z,19.26
2019-05-18T22:40:02.043Z,19.26
2019-05-18T22:42:34.708Z,19.20
2019-05-18T22:45:10.469Z,19.20
2019-05-18T22:47:45.685Z,19.15
2019-05-18T22:50:17.324Z,19.16
2019-05-18T22:52:49.904Z,19.15
2019-05-18T22:55:23.827Z,19.12
2019-05-18T22:57:57.790Z,19.06
2019-05-18T23:00:29.481Z,19.03
2019-05-18T23:03:02.087Z,19.03
2019-05-18T23:05:33.636Z,18.97
2019-05-18T23:08:09.026Z,18.89
2019-05-18T23:10:41.430Z,18.74
2019-05-18T23:13:13.945Z,18.68
2019-05-18T23:15:47.588Z,18.64
2019-05-18T23:18:19.124Z,18.61
2019-05-18T23:20:50.675Z,18.59
2019-05-18T23:23:23.352Z,18.58
2019-05-18T23:25:55.930Z,18.54
2019-05-18T23:28:28.170Z,18.56
2019-05-18T23:31:03.361Z,18.53
2019-05-18T23:33:37.948Z,18.44
2019-05-18T23:36:09.781Z,18.43
2019-05-18T23:38:41.199Z,18.34
2019-05-18T23:41:13.248Z,18.36
2019-05-18T23:43:44.720Z,18.28
2019-05-18T23:46:16.813Z,18.23
2019-05-18T23:48:48.340Z,18.15
2019-05-18T23:51:20.785Z,18.10
2019-05-18T23:53:53.863Z,18.07
2019-05-18T23:56:25.497Z,18.07
2019-05-18T23:58:57.992Z,18.05
